Time;durP1;ratioP1;P1;durP2;ratioP2;P2;SDS_P1;SDS_P2;PMS_P1;PMS_P2;Temp;Humidity;BMP_temperature;BMP_pressure;BME280_temperature;BME280_humidity;BME280_pressure;Samples;Min_cycle;Max_cycle;Signal;HPM_P1;HPM_P2
2022/10/20 00:06:59;;;;;;;;;;;9.50;99.90;;;;;;5250617;23;19937;-57
2022/10/20 00:09:27;;;;;;;;;;;9.50;99.90;;;;;;5600599;23;19933;-61
2022/10/20 00:14:29;;;;;;;;;;;9.40;99.90;;;;;;5647945;23;19939;-57
2022/10/20 00:16:57;;;;;;;;;;;9.40;99.90;;;;;;5049837;28;20027;-56
2022/10/20 00:19:23;;;;;;;;;;;9.40;99.90;;;;;;5053311;28;19979;-56
2022/10/20 00:21:50;;;;;;;;;;;9.40;99.90;;;;;;5052831;28;19935;-57
2022/10/20 00:24:19;;;;;;;;;;;9.40;99.90;;;;;;5052679;28;20008;-56
2022/10/20 00:26:47;;;;;;;;;;;9.40;99.90;;;;;;5053597;28;20431;-56
2022/10/20 00:29:14;;;;;;;;;;;9.30;99.90;;;;;;5051518;28;20568;-57
2022/10/20 00:31:40;;;;;;;;;;;9.30;99.90;;;;;;5053643;28;19928;-56
2022/10/20 00:34:07;;;;;;;;;;;9.30;99.90;;;;;;5054357;28;21036;-57
2022/10/20 00:36:34;;;;;;;;;;;9.30;99.90;;;;;;5052386;28;19932;-56
2022/10/20 00:39:01;;;;;;;;;;;9.30;99.90;;;;;;5052862;28;19950;-54
2022/10/20 00:41:28;;;;;;;;;;;9.30;99.90;;;;;;5052771;28;19929;-56
2022/10/20 00:43:57;;;;;;;;;;;9.30;99.90;;;;;;5052961;28;19944;-56
2022/10/20 00:46:26;;;;;;;;;;;9.30;99.90;;;;;;5052719;28;19929;-56
2022/10/20 00:48:54;;;;;;;;;;;9.20;99.90;;;;;;5052034;28;19936;-56
2022/10/20 00:51:22;;;;;;;;;;;9.20;99.90;;;;;;5052261;28;19936;-56
2022/10/20 00:53:49;;;;;;;;;;;9.20;99.90;;;;;;5053060;28;19939;-56
2022/10/20 00:56:16;;;;;;;;;;;9.20;99.90;;;;;;5052859;28;19928;-56
2022/10/20 00:58:43;;;;;;;;;;;9.20;99.90;;;;;;5050736;28;20617;-56
2022/10/20 01:01:13;;;;;;;;;;;9.10;99.90;;;;;;5053332;28;19984;-56
2022/10/20 01:03:44;;;;;;;;;;;9.10;99.90;;;;;;5052154;28;20447;-56
2022/10/20 01:06:11;;;;;;;;;;;9.10;99.90;;;;;;5052996;28;20972;-56
2022/10/20 01:08:37;;;;;;;;;;;9.10;99.90;;;;;;5050757;28;19928;-56
2022/10/20 01:11:11;;;;;;;;;;;9.10;99.90;;;;;;5053137;28;19928;-56
2022/10/20 01:13:44;;;;;;;;;;;9.10;99.90;;;;;;5052634;28;19933;-56
2022/10/20 01:16:17;;;;;;;;;;;9.10;99.90;;;;;;5058194;28;19929;-56
2022/10/20 01:18:47;;;;;;;;;;;9.10;99.90;;;;;;5058692;28;19928;-56
2022/10/20 01:21:41;;;;;;;;;;;9.10;99.90;;;;;;5059706;28;20532;-57
2022/10/20 01:24:22;;;;;;;;;;;9.10;99.90;;;;;;5018022;28;19932;-56
2022/10/20 01:26:54;;;;;;;;;;;9.10;99.90;;;;;;5055356;28;19934;-56
2022/10/20 01:29:26;;;;;;;;;;;9.10;99.90;;;;;;5056658;28;20138;-56
2022/10/20 01:31:54;;;;;;;;;;;9.00;99.90;;;;;;5058026;28;20395;-56
2022/10/20 01:34:24;;;;;;;;;;;9.00;99.90;;;;;;5059558;28;19932;-56
2022/10/20 01:36:55;;;;;;;;;;;9.10;99.90;;;;;;5057932;28;19929;-57
2022/10/20 01:39:24;;;;;;;;;;;9.10;99.90;;;;;;5057134;28;19935;-56
2022/10/20 01:41:53;;;;;;;;;;;9.10;99.90;;;;;;5055381;28;20928;-56
2022/10/20 01:44:21;;;;;;;;;;;9.10;99.90;;;;;;5058303;28;19936;-57
2022/10/20 01:46:49;;;;;;;;;;;9.10;99.90;;;;;;5058608;28;19928;-56
2022/10/20 01:49:16;;;;;;;;;;;9.10;99.90;;;;;;5058526;28;19929;-56
2022/10/20 01:51:42;;;;;;;;;;;9.10;99.90;;;;;;5058112;28;20469;-56
2022/10/20 01:54:19;;;;;;;;;;;9.10;99.90;;;;;;5057478;28;20799;-56
2022/10/20 01:56:50;;;;;;;;;;;9.10;99.90;;;;;;5058171;28;19936;-55
2022/10/20 01:59:25;;;;;;;;;;;9.10;99.90;;;;;;5057834;28;20383;-56
2022/10/20 02:02:04;;;;;;;;;;;9.10;99.90;;;;;;5058822;28;19935;-56
2022/10/20 02:04:35;;;;;;;;;;;9.10;99.90;;;;;;5060346;28;19984;-56
2022/10/20 02:07:05;;;;;;;;;;;9.00;99.90;;;;;;5059515;28;20358;-56
2022/10/20 02:09:34;;;;;;;;;;;9.00;99.90;;;;;;5059141;28;19936;-56
2022/10/20 02:12:03;;;;;;;;;;;8.90;99.90;;;;;;5056901;28;19929;-55
2022/10/20 02:14:32;;;;;;;;;;;9.00;99.90;;;;;;5056830;28;19939;-56
2022/10/20 02:17:03;;;;;;;;;;;8.90;99.90;;;;;;5058318;28;19935;-56
2022/10/20 02:19:33;;;;;;;;;;;8.90;99.90;;;;;;5058470;28;19929;-56
2022/10/20 02:22:00;;;;;;;;;;;8.90;99.90;;;;;;5057588;28;19935;-56
2022/10/20 02:24:28;;;;;;;;;;;8.80;99.90;;;;;;5057515;28;19939;-56
2022/10/20 02:26:57;;;;;;;;;;;8.80;99.90;;;;;;5057243;28;19928;-56
2022/10/20 02:29:27;;;;;;;;;;;8.80;99.90;;;;;;5056709;28;20450;-56
2022/10/20 02:31:54;;;;;;;;;;;8.80;99.90;;;;;;5057373;28;19935;-56
2022/10/20 02:34:25;;;;;;;;;;;8.80;99.90;;;;;;5057823;28;20540;-56
2022/10/20 02:36:54;;;;;;;;;;;8.80;99.90;;;;;;5057599;28;19936;-56
2022/10/20 02:39:21;;;;;;;;;;;8.80;99.90;;;;;;5056543;28;20327;-56
2022/10/20 02:41:48;;;;;;;;;;;8.90;99.90;;;;;;5056466;28;19940;-56
2022/10/20 02:44:14;;;;;;;;;;;8.80;99.90;;;;;;5057174;28;19933;-56
2022/10/20 02:46:41;;;;;;;;;;;8.80;99.90;;;;;;5057042;28;19929;-55
2022/10/20 02:49:08;;;;;;;;;;;8.80;99.90;;;;;;5056665;28;19929;-56
2022/10/20 02:51:36;;;;;;;;;;;8.70;99.90;;;;;;5056781;28;19990;-56
2022/10/20 02:54:02;;;;;;;;;;;8.60;99.90;;;;;;5060471;28;19933;-56
2022/10/20 02:56:29;;;;;;;;;;;8.60;99.90;;;;;;5059975;28;19935;-56
2022/10/20 02:58:56;;;;;;;;;;;8.70;99.90;;;;;;5059943;28;19935;-56
2022/10/20 03:01:23;;;;;;;;;;;8.70;99.90;;;;;;5061462;28;19928;-56
2022/10/20 03:03:50;;;;;;;;;;;8.70;99.90;;;;;;5060035;28;20422;-55
2022/10/20 03:06:17;;;;;;;;;;;8.70;99.90;;;;;;5060814;28;19934;-56
2022/10/20 03:08:44;;;;;;;;;;;8.70;99.90;;;;;;5060348;28;20094;-56
2022/10/20 03:11:11;;;;;;;;;;;8.70;99.90;;;;;;5061119;28;19951;-56
2022/10/20 03:13:38;;;;;;;;;;;8.70;99.90;;;;;;5058975;28;19943;-56
2022/10/20 03:16:04;;;;;;;;;;;8.70;99.90;;;;;;5059234;28;19936;-55
2022/10/20 03:18:31;;;;;;;;;;;8.80;99.90;;;;;;5060794;28;19929;-56
2022/10/20 03:20:58;;;;;;;;;;;9.00;99.90;;;;;;5060948;28;19935;-56
2022/10/20 03:23:24;;;;;;;;;;;8.70;99.90;;;;;;5058728;28;19937;-56
2022/10/20 03:25:52;;;;;;;;;;;8.70;99.90;;;;;;5060467;28;19928;-57
2022/10/20 03:28:19;;;;;;;;;;;8.70;99.90;;;;;;5060422;28;19929;-56
2022/10/20 03:30:46;;;;;;;;;;;8.60;99.90;;;;;;5058806;28;19929;-55
2022/10/20 03:33:12;;;;;;;;;;;8.60;99.90;;;;;;5058753;28;19983;-56
2022/10/20 03:35:39;;;;;;;;;;;8.60;99.90;;;;;;5059332;28;19932;-55
2022/10/20 03:38:06;;;;;;;;;;;8.60;99.90;;;;;;5061254;28;20823;-55
2022/10/20 03:40:32;;;;;;;;;;;8.60;99.90;;;;;;5062047;28;19929;-55
2022/10/20 03:43:00;;;;;;;;;;;8.60;99.90;;;;;;5053984;28;19933;-55
2022/10/20 03:45:27;;;;;;;;;;;8.60;99.90;;;;;;5057712;28;20793;-56
2022/10/20 03:47:53;;;;;;;;;;;8.60;99.90;;;;;;5060288;28;19937;-56
2022/10/20 03:50:20;;;;;;;;;;;8.60;99.90;;;;;;5060811;28;19929;-56
2022/10/20 03:52:47;;;;;;;;;;;8.60;99.90;;;;;;5057552;28;19932;-55
2022/10/20 03:55:14;;;;;;;;;;;8.60;99.90;;;;;;5059536;28;19928;-56
2022/10/20 03:57:40;;;;;;;;;;;8.60;99.90;;;;;;5058673;28;21095;-55
2022/10/20 04:00:10;;;;;;;;;;;8.60;99.90;;;;;;5058569;28;19928;-56
2022/10/20 04:02:37;;;;;;;;;;;8.60;99.90;;;;;;5058601;28;19944;-55
2022/10/20 04:05:05;;;;;;;;;;;8.60;99.90;;;;;;5059051;28;19961;-56
2022/10/20 04:07:31;;;;;;;;;;;8.60;99.90;;;;;;5058454;28;22037;-55
2022/10/20 04:10:00;;;;;;;;;;;8.50;99.90;;;;;;5054488;28;20709;-56
2022/10/20 04:12:28;;;;;;;;;;;8.50;99.90;;;;;;5056953;28;19944;-56
2022/10/20 04:14:58;;;;;;;;;;;8.50;99.90;;;;;;5056443;28;19928;-56
2022/10/20 04:17:28;;;;;;;;;;;8.50;99.90;;;;;;5060215;28;20074;-55
2022/10/20 04:19:54;;;;;;;;;;;8.50;99.90;;;;;;5060293;28;19934;-56
2022/10/20 04:22:21;;;;;;;;;;;8.50;99.90;;;;;;5056417;28;19940;-55
2022/10/20 04:24:47;;;;;;;;;;;8.60;99.90;;;;;;5054500;28;19935;-55
2022/10/20 04:27:15;;;;;;;;;;;8.60;99.90;;;;;;5055245;28;19934;-55
2022/10/20 04:29:41;;;;;;;;;;;8.60;99.90;;;;;;5054771;28;19935;-55
2022/10/20 04:32:08;;;;;;;;;;;8.60;99.90;;;;;;5053593;28;20674;-55
2022/10/20 04:34:36;;;;;;;;;;;8.60;99.90;;;;;;5055263;28;19935;-55
2022/10/20 04:37:03;;;;;;;;;;;8.60;99.90;;;;;;5057125;28;19978;-56
2022/10/20 04:39:29;;;;;;;;;;;8.60;99.90;;;;;;5057611;28;19940;-55
2022/10/20 04:41:56;;;;;;;;;;;8.60;99.90;;;;;;5058100;28;19940;-55
2022/10/20 04:44:23;;;;;;;;;;;8.60;99.90;;;;;;5057929;28;19935;-55
2022/10/20 04:46:49;;;;;;;;;;;8.60;99.90;;;;;;5058973;28;19929;-56
2022/10/20 04:49:16;;;;;;;;;;;8.60;99.90;;;;;;5057670;28;20628;-56
2022/10/20 04:51:44;;;;;;;;;;;8.60;99.90;;;;;;5053829;28;19939;-55
2022/10/20 04:54:11;;;;;;;;;;;8.60;99.90;;;;;;5054947;28;19929;-55
2022/10/20 04:56:37;;;;;;;;;;;8.60;99.90;;;;;;5057490;28;19929;-55
2022/10/20 04:59:04;;;;;;;;;;;8.60;99.90;;;;;;5060368;28;20357;-55
2022/10/20 05:01:31;;;;;;;;;;;8.60;99.90;;;;;;5059233;28;20507;-55
2022/10/20 05:03:58;;;;;;;;;;;8.60;99.90;;;;;;5058279;28;20059;-55
2022/10/20 05:06:25;;;;;;;;;;;8.50;99.90;;;;;;5059365;28;19929;-55
2022/10/20 05:08:55;;;;;;;;;;;8.60;99.90;;;;;;5058719;28;19933;-55
2022/10/20 05:11:23;;;;;;;;;;;8.60;99.90;;;;;;5056193;28;19932;-55
2022/10/20 05:13:49;;;;;;;;;;;8.60;99.90;;;;;;5053318;28;19929;-54
2022/10/20 05:16:17;;;;;;;;;;;8.60;99.90;;;;;;5057867;28;19929;-55
2022/10/20 05:18:44;;;;;;;;;;;8.60;99.90;;;;;;5058143;28;19999;-55
2022/10/20 05:21:12;;;;;;;;;;;8.60;99.90;;;;;;5059491;28;19932;-55
2022/10/20 05:23:39;;;;;;;;;;;8.60;99.90;;;;;;5059852;28;19935;-55
2022/10/20 05:26:08;;;;;;;;;;;8.60;99.90;;;;;;5059529;28;21894;-55
2022/10/20 05:28:34;;;;;;;;;;;8.50;99.90;;;;;;5059115;28;19929;-55
2022/10/20 05:31:02;;;;;;;;;;;8.50;99.90;;;;;;5060820;28;20619;-55
2022/10/20 05:33:29;;;;;;;;;;;8.50;99.90;;;;;;5060414;28;19935;-55
2022/10/20 05:35:56;;;;;;;;;;;8.50;99.90;;;;;;5061468;28;19929;-55
2022/10/20 05:38:22;;;;;;;;;;;8.50;99.90;;;;;;5058432;28;19936;-55
2022/10/20 05:40:49;;;;;;;;;;;8.50;99.90;;;;;;5058348;28;19932;-55
2022/10/20 05:43:17;;;;;;;;;;;8.50;99.90;;;;;;5058351;28;22066;-56
2022/10/20 05:45:44;;;;;;;;;;;8.40;99.90;;;;;;5060884;28;19928;-55
2022/10/20 05:48:10;;;;;;;;;;;8.40;99.90;;;;;;5059035;28;19935;-55
2022/10/20 05:50:37;;;;;;;;;;;8.30;99.90;;;;;;5059463;28;19932;-56
2022/10/20 05:53:04;;;;;;;;;;;8.30;99.90;;;;;;5060169;28;19929;-55
2022/10/20 05:55:30;;;;;;;;;;;8.30;99.90;;;;;;5059322;28;19935;-55
2022/10/20 05:57:57;;;;;;;;;;;8.20;99.90;;;;;;5058236;28;20008;-55
2022/10/20 06:00:29;;;;;;;;;;;8.20;99.90;;;;;;5057882;28;19932;-56
2022/10/20 06:02:56;;;;;;;;;;;8.20;99.90;;;;;;5059528;28;19968;-55
2022/10/20 06:05:23;;;;;;;;;;;8.20;99.90;;;;;;5059481;28;20358;-55
2022/10/20 06:07:50;;;;;;;;;;;8.20;99.90;;;;;;5058714;28;19936;-55
2022/10/20 06:10:16;;;;;;;;;;;8.20;99.90;;;;;;5059233;28;19940;-55
2022/10/20 06:12:43;;;;;;;;;;;8.20;99.90;;;;;;5058695;28;19928;-55
2022/10/20 06:15:10;;;;;;;;;;;8.30;99.90;;;;;;5058855;28;19936;-55
2022/10/20 06:17:38;;;;;;;;;;;8.30;99.90;;;;;;5058840;28;19935;-55
2022/10/20 06:20:04;;;;;;;;;;;8.30;99.90;;;;;;5059473;28;19933;-55
2022/10/20 06:22:31;;;;;;;;;;;8.20;99.90;;;;;;5058696;28;19928;-55
2022/10/20 06:24:58;;;;;;;;;;;8.20;99.90;;;;;;5059287;28;20011;-55
2022/10/20 06:27:24;;;;;;;;;;;8.20;99.90;;;;;;5060826;28;20383;-55
2022/10/20 06:29:51;;;;;;;;;;;8.20;99.90;;;;;;5062047;28;19933;-55
2022/10/20 06:32:18;;;;;;;;;;;8.20;99.90;;;;;;5062597;28;20063;-55
2022/10/20 06:34:46;;;;;;;;;;;8.20;99.90;;;;;;5061595;28;19929;-55
2022/10/20 06:37:12;;;;;;;;;;;8.30;99.90;;;;;;5062847;28;19929;-55
2022/10/20 06:39:39;;;;;;;;;;;8.30;99.90;;;;;;5062625;28;19933;-55
2022/10/20 06:42:05;;;;;;;;;;;8.30;99.90;;;;;;5061925;28;19933;-55
2022/10/20 06:44:32;;;;;;;;;;;8.30;99.90;;;;;;5061612;28;20351;-55
2022/10/20 06:46:59;;;;;;;;;;;8.40;99.90;;;;;;5062776;28;20402;-55
2022/10/20 06:49:25;;;;;;;;;;;8.40;99.90;;;;;;5063012;28;19932;-55
2022/10/20 06:51:53;;;;;;;;;;;8.40;99.90;;;;;;5062049;28;20378;-55
2022/10/20 06:54:20;;;;;;;;;;;8.40;99.90;;;;;;5061555;28;20411;-55
2022/10/20 06:56:47;;;;;;;;;;;8.50;99.90;;;;;;5062230;28;19928;-54
2022/10/20 06:59:13;;;;;;;;;;;8.50;99.90;;;;;;5062211;28;19933;-55
2022/10/20 07:01:41;;;;;;;;;;;8.50;99.90;;;;;;5062079;28;19933;-55
2022/10/20 07:04:10;;;;;;;;;;;8.50;99.90;;;;;;5062785;28;21723;-55
2022/10/20 07:06:38;;;;;;;;;;;8.50;99.90;;;;;;5061709;28;20413;-55
2022/10/20 07:09:07;;;;;;;;;;;8.50;99.90;;;;;;5062338;28;20607;-55
2022/10/20 07:11:33;;;;;;;;;;;8.60;99.90;;;;;;5061511;28;20885;-55
2022/10/20 07:14:01;;;;;;;;;;;8.60;99.90;;;;;;5060215;28;19928;-55
2022/10/20 07:16:28;;;;;;;;;;;8.60;99.90;;;;;;5062093;28;20409;-55
2022/10/20 07:18:56;;;;;;;;;;;8.60;99.90;;;;;;5061636;28;19944;-55
2022/10/20 07:21:23;;;;;;;;;;;8.70;99.90;;;;;;5061283;28;19932;-55
2022/10/20 07:23:50;;;;;;;;;;;8.70;99.90;;;;;;5061446;28;19929;-55
2022/10/20 07:26:20;;;;;;;;;;;8.70;99.90;;;;;;5061156;28;19929;-54
2022/10/20 07:28:47;;;;;;;;;;;8.70;99.90;;;;;;5060710;28;19933;-55
2022/10/20 07:31:15;;;;;;;;;;;8.70;99.90;;;;;;5060931;28;20130;-55
2022/10/20 07:33:42;;;;;;;;;;;8.70;99.90;;;;;;5061631;28;19951;-55
2022/10/20 07:36:12;;;;;;;;;;;8.80;99.90;;;;;;5060877;28;19933;-55
2022/10/20 07:38:39;;;;;;;;;;;8.80;99.90;;;;;;5059523;28;20754;-55
2022/10/20 07:41:06;;;;;;;;;;;8.80;99.90;;;;;;5061299;28;19934;-55
2022/10/20 07:43:34;;;;;;;;;;;8.80;99.90;;;;;;5060797;28;19929;-55
2022/10/20 07:46:00;;;;;;;;;;;8.80;99.90;;;;;;5062089;28;19928;-55
2022/10/20 07:48:27;;;;;;;;;;;8.90;99.90;;;;;;5060935;28;19962;-55
2022/10/20 07:50:54;;;;;;;;;;;8.90;99.90;;;;;;5060144;28;19928;-55
2022/10/20 07:53:20;;;;;;;;;;;8.90;99.90;;;;;;5061372;28;19928;-55
2022/10/20 07:55:47;;;;;;;;;;;8.90;99.90;;;;;;5061018;28;19933;-55
2022/10/20 07:58:14;;;;;;;;;;;8.90;99.90;;;;;;5062108;28;19932;-54
2022/10/20 08:00:42;;;;;;;;;;;8.90;99.90;;;;;;5061139;28;19928;-54
2022/10/20 08:03:09;;;;;;;;;;;8.90;99.90;;;;;;5060478;28;19932;-55
2022/10/20 08:05:35;;;;;;;;;;;8.90;99.90;;;;;;5061857;28;19929;-55
2022/10/20 08:08:02;;;;;;;;;;;9.00;99.90;;;;;;5061904;28;20070;-54
2022/10/20 08:10:29;;;;;;;;;;;9.00;99.90;;;;;;5061091;28;20589;-55
2022/10/20 08:12:55;;;;;;;;;;;9.00;99.90;;;;;;5060247;28;19928;-54
2022/10/20 08:15:22;;;;;;;;;;;9.10;99.90;;;;;;5060553;28;20384;-54
2022/10/20 08:17:50;;;;;;;;;;;9.10;99.90;;;;;;5061100;28;19940;-55
2022/10/20 08:20:17;;;;;;;;;;;9.10;99.90;;;;;;5061162;28;19936;-55
2022/10/20 08:22:43;;;;;;;;;;;9.20;99.90;;;;;;5060826;28;19939;-55
2022/10/20 08:25:13;;;;;;;;;;;9.20;99.90;;;;;;5060940;28;19935;-55
2022/10/20 08:27:39;;;;;;;;;;;9.20;99.90;;;;;;5061467;28;19932;-55
2022/10/20 08:30:06;;;;;;;;;;;9.30;99.90;;;;;;5061072;28;19929;-54
2022/10/20 08:32:33;;;;;;;;;;;9.30;99.90;;;;;;5060522;28;19979;-55
2022/10/20 08:35:01;;;;;;;;;;;9.40;99.90;;;;;;5061120;28;20627;-55
2022/10/20 08:37:29;;;;;;;;;;;9.40;99.90;;;;;;5060870;28;20403;-55
2022/10/20 08:39:56;;;;;;;;;;;9.50;99.90;;;;;;5060052;28;20566;-55
2022/10/20 08:42:23;;;;;;;;;;;9.50;99.90;;;;;;5060653;28;19934;-54
2022/10/20 08:44:50;;;;;;;;;;;9.50;99.90;;;;;;5060779;28;19936;-55
2022/10/20 08:47:23;;;;;;;;;;;9.50;99.90;;;;;;5060355;28;19939;-55
2022/10/20 08:49:50;;;;;;;;;;;9.60;99.90;;;;;;5060539;28;19929;-55
2022/10/20 08:52:19;;;;;;;;;;;9.60;99.90;;;;;;5059907;28;20426;-55
2022/10/20 08:54:46;;;;;;;;;;;9.70;99.90;;;;;;5059835;28;19929;-55
2022/10/20 08:57:18;;;;;;;;;;;9.70;99.90;;;;;;5061403;28;19932;-54
2022/10/20 08:59:45;;;;;;;;;;;9.70;99.90;;;;;;5060352;28;19929;-55
2022/10/20 09:02:14;;;;;;;;;;;9.80;99.90;;;;;;5060358;28;19933;-55
2022/10/20 09:04:42;;;;;;;;;;;9.90;99.90;;;;;;5059953;28;19935;-55
2022/10/20 09:07:15;;;;;;;;;;;9.90;99.90;;;;;;5059723;28;19932;-54
2022/10/20 09:09:43;;;;;;;;;;;10.00;99.90;;;;;;5059618;28;19928;-55
2022/10/20 09:12:12;;;;;;;;;;;10.00;99.90;;;;;;5059700;28;19929;-55
2022/10/20 09:14:39;;;;;;;;;;;10.10;99.90;;;;;;5059975;28;20059;-55
2022/10/20 09:17:06;;;;;;;;;;;10.20;99.90;;;;;;5059853;28;20458;-55
2022/10/20 09:19:33;;;;;;;;;;;10.20;99.90;;;;;;5060051;28;19936;-55
2022/10/20 09:22:04;;;;;;;;;;;10.30;99.90;;;;;;5059687;28;21566;-55
2022/10/20 09:24:32;;;;;;;;;;;10.40;99.90;;;;;;5060222;28;19933;-56
2022/10/20 09:27:16;;;;;;;;;;;10.40;99.90;;;;;;5060015;28;19933;-54
2022/10/20 09:29:44;;;;;;;;;;;10.40;99.90;;;;;;5059216;28;20400;-55
2022/10/20 09:32:16;;;;;;;;;;;10.50;99.90;;;;;;5059490;28;20395;-55
2022/10/20 09:34:43;;;;;;;;;;;10.60;99.90;;;;;;5059745;28;19928;-55
2022/10/20 09:37:11;;;;;;;;;;;10.60;99.90;;;;;;5060174;28;20313;-55
2022/10/20 09:39:42;;;;;;;;;;;10.60;99.90;;;;;;5059116;28;19928;-55
2022/10/20 09:42:14;;;;;;;;;;;10.60;99.90;;;;;;5058828;28;19935;-55
2022/10/20 09:44:46;;;;;;;;;;;10.70;99.90;;;;;;5059884;28;19944;-55
2022/10/20 09:47:14;;;;;;;;;;;10.60;99.90;;;;;;5059617;28;19933;-55
2022/10/20 09:49:42;;;;;;;;;;;10.60;99.90;;;;;;5059325;28;20413;-55
2022/10/20 09:52:16;;;;;;;;;;;10.70;99.90;;;;;;5059407;28;19967;-55
2022/10/20 09:54:46;;;;;;;;;;;10.80;99.90;;;;;;5059838;28;19936;-55
2022/10/20 09:57:17;;;;;;;;;;;10.70;99.90;;;;;;5059957;28;20425;-55
2022/10/20 09:59:45;;;;;;;;;;;10.80;99.90;;;;;;5059392;28;19929;-55
2022/10/20 10:02:26;;;;;;;;;;;10.80;99.90;;;;;;5059655;28;19929;-55
2022/10/20 10:04:54;;;;;;;;;;;10.80;99.90;;;;;;5059560;28;19928;-54
2022/10/20 10:07:30;;;;;;;;;;;10.90;99.90;;;;;;5062662;28;19939;-55
2022/10/20 10:09:57;;;;;;;;;;;10.90;99.90;;;;;;5062412;28;19934;-55
2022/10/20 10:12:26;;;;;;;;;;;10.90;99.90;;;;;;5062880;28;19929;-55
2022/10/20 10:14:53;;;;;;;;;;;11.00;99.90;;;;;;5060974;28;19929;-55
2022/10/20 10:17:28;;;;;;;;;;;11.00;99.90;;;;;;5062045;28;19944;-55
2022/10/20 10:19:55;;;;;;;;;;;11.10;99.90;;;;;;5062319;28;20468;-54
2022/10/20 10:22:21;;;;;;;;;;;11.10;99.90;;;;;;5062798;28;20374;-55
2022/10/20 10:24:49;;;;;;;;;;;11.20;99.90;;;;;;5062641;28;19929;-55
2022/10/20 10:27:20;;;;;;;;;;;11.20;99.90;;;;;;5062661;28;20336;-55
2022/10/20 10:29:48;;;;;;;;;;;11.40;99.90;;;;;;5062744;28;19929;-55
2022/10/20 10:32:15;;;;;;;;;;;11.40;99.90;;;;;;5062992;28;19928;-55
2022/10/20 10:34:55;;;;;;;;;;;11.50;99.90;;;;;;5062463;28;19928;-55
2022/10/20 10:37:22;;;;;;;;;;;11.50;99.90;;;;;;5061619;28;19933;-55
2022/10/20 10:39:49;;;;;;;;;;;11.60;99.90;;;;;;5062007;28;19936;-55
2022/10/20 10:42:21;;;;;;;;;;;11.70;99.90;;;;;;5062840;28;19935;-55
2022/10/20 10:44:55;;;;;;;;;;;11.90;99.90;;;;;;5062469;28;19928;-54
2022/10/20 10:47:30;;;;;;;;;;;11.90;99.90;;;;;;5062523;28;19933;-55
2022/10/20 10:49:59;;;;;;;;;;;12.00;99.90;;;;;;5062405;28;19935;-55
2022/10/20 10:52:33;;;;;;;;;;;12.10;99.90;;;;;;5062572;28;20311;-55
2022/10/20 10:55:05;;;;;;;;;;;12.10;99.90;;;;;;5061574;28;19929;-55
2022/10/20 10:57:36;;;;;;;;;;;12.10;99.90;;;;;;5062742;28;19933;-55
2022/10/20 11:00:10;;;;;;;;;;;12.10;99.90;;;;;;5062437;28;20031;-55
2022/10/20 11:02:55;;;;;;;;;;;12.20;99.90;;;;;;5061205;28;20410;-55
2022/10/20 11:05:31;;;;;;;;;;;12.20;99.90;;;;;;5060306;28;19933;-55
2022/10/20 11:08:03;;;;;;;;;;;12.30;99.90;;;;;;5061596;28;20427;-55
2022/10/20 11:10:37;;;;;;;;;;;12.30;99.90;;;;;;5062150;28;20794;-55
2022/10/20 11:13:12;;;;;;;;;;;12.40;99.90;;;;;;5061196;28;20438;-55
2022/10/20 11:15:47;;;;;;;;;;;12.40;99.90;;;;;;5060268;28;20836;-55
2022/10/20 11:18:20;;;;;;;;;;;12.40;99.90;;;;;;5061633;28;19938;-55
2022/10/20 11:20:51;;;;;;;;;;;12.40;99.90;;;;;;5061331;28;19928;-55
2022/10/20 11:23:33;;;;;;;;;;;12.40;99.90;;;;;;5061233;28;19929;-54
2022/10/20 11:26:02;;;;;;;;;;;12.40;99.90;;;;;;5057726;28;19929;-55
2022/10/20 11:28:31;;;;;;;;;;;12.50;99.90;;;;;;5060650;28;20387;-55
2022/10/20 11:30:59;;;;;;;;;;;12.60;99.90;;;;;;5061182;28;19929;-55
2022/10/20 11:33:28;;;;;;;;;;;12.50;99.90;;;;;;5060295;28;19929;-55
2022/10/20 11:35:58;;;;;;;;;;;12.50;99.90;;;;;;5060585;28;19929;-55
2022/10/20 11:38:30;;;;;;;;;;;12.40;99.90;;;;;;5061065;28;19940;-54
2022/10/20 11:41:00;;;;;;;;;;;12.50;99.90;;;;;;5060862;28;20141;-55
2022/10/20 11:43:29;;;;;;;;;;;12.50;99.90;;;;;;5060023;28;19929;-55
2022/10/20 11:45:57;;;;;;;;;;;12.40;99.90;;;;;;5061299;28;19959;-55
2022/10/20 11:48:27;;;;;;;;;;;12.50;99.90;;;;;;5060219;28;19940;-54
2022/10/20 11:51:03;;;;;;;;;;;12.50;99.90;;;;;;5061034;28;20303;-55
2022/10/20 11:53:38;;;;;;;;;;;12.50;99.90;;;;;;5060086;28;19928;-55
2022/10/20 11:56:12;;;;;;;;;;;12.50;99.90;;;;;;5061081;28;19928;-55
2022/10/20 11:58:52;;;;;;;;;;;12.60;99.90;;;;;;5060693;28;19933;-55
2022/10/20 12:01:27;;;;;;;;;;;12.60;99.90;;;;;;5060537;28;19928;-55
2022/10/20 12:04:24;;;;;;;;;;;12.60;99.90;;;;;;5060561;28;20387;-55
2022/10/20 12:07:01;;;;;;;;;;;12.60;99.90;;;;;;4990802;28;21249;-55
2022/10/20 12:09:49;;;;;;;;;;;12.60;99.90;;;;;;5047954;28;19939;-55
2022/10/20 12:12:18;;;;;;;;;;;12.60;99.90;;;;;;5059318;28;20392;-55
2022/10/20 12:14:49;;;;;;;;;;;12.60;99.90;;;;;;5059986;28;19928;-55
2022/10/20 12:17:21;;;;;;;;;;;12.60;99.90;;;;;;5059792;28;19929;-55
2022/10/20 12:19:49;;;;;;;;;;;12.60;99.90;;;;;;5059832;28;19933;-55
2022/10/20 12:22:35;;;;;;;;;;;12.70;99.90;;;;;;5060689;28;19928;-55
2022/10/20 12:25:17;;;;;;;;;;;12.70;99.90;;;;;;5059648;28;19929;-55
2022/10/20 12:27:44;;;;;;;;;;;12.70;99.90;;;;;;5058931;28;19928;-55
2022/10/20 12:30:29;;;;;;;;;;;12.60;99.90;;;;;;5060288;28;19999;-55
2022/10/20 12:33:10;;;;;;;;;;;12.70;99.90;;;;;;5060464;28;19928;-55
2022/10/20 12:35:52;;;;;;;;;;;12.70;99.90;;;;;;5055928;28;19936;-55
2022/10/20 12:38:21;;;;;;;;;;;12.70;99.90;;;;;;5060359;28;20550;-55
2022/10/20 12:40:53;;;;;;;;;;;12.70;99.90;;;;;;5059330;28;20406;-55
2022/10/20 12:43:31;;;;;;;;;;;12.70;99.90;;;;;;5059227;28;19982;-55
2022/10/20 12:45:59;;;;;;;;;;;12.70;99.90;;;;;;5058775;28;20416;-55
2022/10/20 12:48:26;;;;;;;;;;;12.70;99.90;;;;;;5060255;28;20513;-55
2022/10/20 12:50:53;;;;;;;;;;;12.70;99.90;;;;;;5060130;28;21767;-55
2022/10/20 12:53:21;;;;;;;;;;;12.60;99.90;;;;;;5060473;28;19939;-54
2022/10/20 12:55:55;;;;;;;;;;;12.60;99.90;;;;;;5059684;28;19928;-55
2022/10/20 12:58:27;;;;;;;;;;;12.60;99.90;;;;;;5060084;28;19937;-55
2022/10/20 13:01:01;;;;;;;;;;;12.60;99.90;;;;;;5059688;28;20051;-55
2022/10/20 13:03:39;;;;;;;;;;;12.50;99.90;;;;;;5060078;28;19928;-55
2022/10/20 13:06:21;;;;;;;;;;;12.50;99.90;;;;;;5059437;28;20425;-55
2022/10/20 13:09:02;;;;;;;;;;;12.40;99.90;;;;;;5045502;28;19928;-55
2022/10/20 13:11:41;;;;;;;;;;;12.40;99.90;;;;;;5058511;28;20660;-55
2022/10/20 13:14:15;;;;;;;;;;;12.40;99.90;;;;;;5059162;28;19928;-55
2022/10/20 13:16:45;;;;;;;;;;;12.40;99.90;;;;;;5058953;28;19932;-55
2022/10/20 13:19:15;;;;;;;;;;;12.40;99.90;;;;;;5059345;28;19950;-55
2022/10/20 13:21:42;;;;;;;;;;;12.30;99.90;;;;;;5058806;28;20031;-55
2022/10/20 13:24:12;;;;;;;;;;;12.30;99.90;;;;;;5059446;28;20119;-55
2022/10/20 13:26:46;;;;;;;;;;;12.30;99.90;;;;;;5058423;28;20853;-55
2022/10/20 13:29:17;;;;;;;;;;;12.40;99.90;;;;;;5059585;28;20015;-55
2022/10/20 13:31:46;;;;;;;;;;;12.30;99.90;;;;;;5058393;28;19932;-55
2022/10/20 13:34:15;;;;;;;;;;;12.30;99.90;;;;;;5059567;28;20006;-55
2022/10/20 13:37:03;;;;;;;;;;;12.30;99.90;;;;;;5058390;28;19929;-55
2022/10/20 13:39:35;;;;;;;;;;;12.30;99.90;;;;;;5021879;28;19928;-55
2022/10/20 13:42:06;;;;;;;;;;;12.30;99.90;;;;;;5058299;28;19938;-54
2022/10/20 13:44:38;;;;;;;;;;;12.30;99.90;;;;;;5058929;28;20424;-54
2022/10/20 13:47:10;;;;;;;;;;;12.30;99.90;;;;;;5058939;28;19939;-54
2022/10/20 13:49:44;;;;;;;;;;;12.30;99.90;;;;;;5059108;28;19928;-55
2022/10/20 13:52:13;;;;;;;;;;;12.30;99.90;;;;;;5058287;28;19932;-55
2022/10/20 13:54:43;;;;;;;;;;;12.30;99.90;;;;;;5059697;28;21383;-55
2022/10/20 13:57:19;;;;;;;;;;;12.20;99.90;;;;;;5059602;28;19934;-55
2022/10/20 13:59:54;;;;;;;;;;;12.20;99.90;;;;;;5058152;28;19934;-55
2022/10/20 14:02:23;;;;;;;;;;;12.20;99.90;;;;;;5058118;28;22031;-54
2022/10/20 14:05:01;;;;;;;;;;;12.20;99.90;;;;;;5057549;28;19929;-55
2022/10/20 14:07:35;;;;;;;;;;;12.20;99.90;;;;;;5058991;28;19935;-55
2022/10/20 14:10:01;;;;;;;;;;;12.20;99.90;;;;;;5059037;28;20312;-55
2022/10/20 14:12:31;;;;;;;;;;;12.20;99.90;;;;;;5058497;28;20405;-54
2022/10/20 14:14:58;;;;;;;;;;;12.20;99.90;;;;;;5058435;28;19929;-54
2022/10/20 14:17:25;;;;;;;;;;;12.20;99.90;;;;;;5057664;28;19935;-54
2022/10/20 14:20:07;;;;;;;;;;;12.20;99.90;;;;;;5058279;28;19970;-55
2022/10/20 14:22:34;;;;;;;;;;;12.20;99.90;;;;;;5058885;28;19932;-54
2022/10/20 14:25:04;;;;;;;;;;;12.20;99.90;;;;;;5058874;28;20016;-54
2022/10/20 14:27:33;;;;;;;;;;;12.20;99.90;;;;;;5058647;28;20016;-54
2022/10/20 14:30:00;;;;;;;;;;;12.20;99.90;;;;;;5059099;28;19936;-54
2022/10/20 14:32:28;;;;;;;;;;;12.10;99.90;;;;;;5056950;28;19933;-54
2022/10/20 14:34:56;;;;;;;;;;;12.10;99.90;;;;;;5058095;28;19929;-53
2022/10/20 14:37:26;;;;;;;;;;;12.10;99.90;;;;;;5058662;28;20307;-53
2022/10/20 14:39:53;;;;;;;;;;;12.10;99.90;;;;;;5058771;28;19936;-54
2022/10/20 14:42:22;;;;;;;;;;;12.10;99.90;;;;;;5058394;28;19932;-54
2022/10/20 14:44:50;;;;;;;;;;;12.10;99.90;;;;;;5058607;28;19928;-53
2022/10/20 14:47:18;;;;;;;;;;;12.00;99.90;;;;;;5058995;28;19929;-54